sensor_id;sensor_type;location;lat;lon;timestamp;P1;durP1;ratioP1;P2;durP2;ratioP2
78298;SDS011;67556;55.656;12.590;2023-04-15T00:00:49;19.75;;;13.88;;
78298;SDS011;67556;55.656;12.590;2023-04-15T00:03:17;19.80;;;15.45;;
78298;SDS011;67556;55.656;12.590;2023-04-15T00:05:44;20.90;;;14.70;;
78298;SDS011;67556;55.656;12.590;2023-04-15T00:08:11;24.13;;;14.57;;
78298;SDS011;67556;55.656;12.590;2023-04-15T00:10:37;20.92;;;13.82;;
78298;SDS011;67556;55.656;12.590;2023-04-15T00:13:04;20.30;;;14.80;;
78298;SDS011;67556;55.656;12.590;2023-04-15T00:15:31;22.25;;;14.98;;
78298;SDS011;67556;55.656;12.590;2023-04-15T00:17:57;20.08;;;14.80;;
78298;SDS011;67556;55.656;12.590;2023-04-15T00:20:25;22.50;;;15.43;;
78298;SDS011;67556;55.656;12.590;2023-04-15T00:22:52;19.65;;;14.70;;
78298;SDS011;67556;55.656;12.590;2023-04-15T00:25:19;18.33;;;14.43;;
78298;SDS011;67556;55.656;12.590;2023-04-15T00:27:46;20.67;;;14.68;;
78298;SDS011;67556;55.656;12.590;2023-04-15T00:30:13;20.05;;;13.70;;
78298;SDS011;67556;55.656;12.590;2023-04-15T00:32:39;20.73;;;14.10;;
78298;SDS011;67556;55.656;12.590;2023-04-15T00:35:06;19.90;;;14.68;;
78298;SDS011;67556;55.656;12.590;2023-04-15T00:37:37;18.77;;;13.70;;
78298;SDS011;67556;55.656;12.590;2023-04-15T00:40:05;17.42;;;13.52;;
78298;SDS011;67556;55.656;12.590;2023-04-15T00:42:36;18.73;;;13.15;;
78298;SDS011;67556;55.656;12.590;2023-04-15T00:45:04;18.77;;;14.82;;
78298;SDS011;67556;55.656;12.590;2023-04-15T00:47:34;18.63;;;14.00;;
78298;SDS011;67556;55.656;12.590;2023-04-15T00:50:03;20.33;;;14.73;;
78298;SDS011;67556;55.656;12.590;2023-04-15T00:52:31;21.20;;;14.23;;
78298;SDS011;67556;55.656;12.590;2023-04-15T00:55:00;18.77;;;13.73;;
78298;SDS011;67556;55.656;12.590;2023-04-15T00:57:32;21.15;;;13.05;;
78298;SDS011;67556;55.656;12.590;2023-04-15T01:00:00;17.70;;;14.93;;
78298;SDS011;67556;55.656;12.590;2023-04-15T01:02:29;18.25;;;13.88;;
78298;SDS011;67556;55.656;12.590;2023-04-15T01:04:57;18.88;;;13.63;;
78298;SDS011;67556;55.656;12.590;2023-04-15T01:07:23;17.70;;;12.60;;
78298;SDS011;67556;55.656;12.590;2023-04-15T01:09:50;18.60;;;13.02;;
78298;SDS011;67556;55.656;12.590;2023-04-15T01:12:20;20.05;;;13.73;;
78298;SDS011;67556;55.656;12.590;2023-04-15T01:14:48;19.05;;;13.50;;
78298;SDS011;67556;55.656;12.590;2023-04-15T01:17:14;18.50;;;13.15;;
78298;SDS011;67556;55.656;12.590;2023-04-15T01:19:41;18.65;;;13.23;;
78298;SDS011;67556;55.656;12.590;2023-04-15T01:22:08;18.98;;;13.88;;
78298;SDS011;67556;55.656;12.590;2023-04-15T01:24:35;22.35;;;14.35;;
78298;SDS011;67556;55.656;12.590;2023-04-15T01:27:04;15.95;;;12.82;;
78298;SDS011;67556;55.656;12.590;2023-04-15T01:29:31;19.77;;;12.70;;
78298;SDS011;67556;55.656;12.590;2023-04-15T01:32:04;19.98;;;14.15;;
78298;SDS011;67556;55.656;12.590;2023-04-15T01:34:30;19.42;;;14.07;;
78298;SDS011;67556;55.656;12.590;2023-04-15T01:36:57;18.70;;;13.75;;
78298;SDS011;67556;55.656;12.590;2023-04-15T01:39:23;21.33;;;13.98;;
78298;SDS011;67556;55.656;12.590;2023-04-15T01:41:50;18.88;;;14.85;;
78298;SDS011;67556;55.656;12.590;2023-04-15T01:44:18;20.20;;;14.82;;
78298;SDS011;67556;55.656;12.590;2023-04-15T01:46:45;20.08;;;14.65;;
78298;SDS011;67556;55.656;12.590;2023-04-15T01:49:12;21.67;;;15.68;;
78298;SDS011;67556;55.656;12.590;2023-04-15T01:51:38;20.25;;;14.98;;
78298;SDS011;67556;55.656;12.590;2023-04-15T01:54:05;19.70;;;16.05;;
78298;SDS011;67556;55.656;12.590;2023-04-15T01:56:32;18.92;;;14.63;;
78298;SDS011;67556;55.656;12.590;2023-04-15T01:58:59;18.33;;;15.27;;
78298;SDS011;67556;55.656;12.590;2023-04-15T02:01:29;19.40;;;14.70;;
78298;SDS011;67556;55.656;12.590;2023-04-15T02:03:55;20.00;;;15.70;;
78298;SDS011;67556;55.656;12.590;2023-04-15T02:06:32;18.25;;;15.45;;
78298;SDS011;67556;55.656;12.590;2023-04-15T02:08:59;20.05;;;14.65;;
78298;SDS011;67556;55.656;12.590;2023-04-15T02:11:25;20.55;;;16.50;;
78298;SDS011;67556;55.656;12.590;2023-04-15T02:13:53;18.23;;;14.95;;
78298;SDS011;67556;55.656;12.590;2023-04-15T02:16:19;20.17;;;16.00;;
78298;SDS011;67556;55.656;12.590;2023-04-15T02:18:47;18.58;;;15.50;;
78298;SDS011;67556;55.656;12.590;2023-04-15T02:21:15;21.70;;;17.23;;
78298;SDS011;67556;55.656;12.590;2023-04-15T02:23:43;19.83;;;17.10;;
78298;SDS011;67556;55.656;12.590;2023-04-15T02:26:12;20.58;;;17.02;;
78298;SDS011;67556;55.656;12.590;2023-04-15T02:28:39;22.55;;;16.05;;
78298;SDS011;67556;55.656;12.590;2023-04-15T02:31:05;22.10;;;17.10;;
78298;SDS011;67556;55.656;12.590;2023-04-15T02:33:33;21.33;;;15.40;;
78298;SDS011;67556;55.656;12.590;2023-04-15T02:36:02;18.52;;;15.35;;
78298;SDS011;67556;55.656;12.590;2023-04-15T02:38:29;19.08;;;15.15;;
78298;SDS011;67556;55.656;12.590;2023-04-15T02:40:56;21.27;;;15.98;;
78298;SDS011;67556;55.656;12.590;2023-04-15T02:43:22;17.55;;;14.68;;
78298;SDS011;67556;55.656;12.590;2023-04-15T02:45:49;20.20;;;14.02;;
78298;SDS011;67556;55.656;12.590;2023-04-15T02:48:16;19.23;;;14.82;;
78298;SDS011;67556;55.656;12.590;2023-04-15T02:50:44;21.10;;;15.43;;
78298;SDS011;67556;55.656;12.590;2023-04-15T02:53:12;18.25;;;15.55;;
78298;SDS011;67556;55.656;12.590;2023-04-15T02:55:39;19.92;;;15.23;;
78298;SDS011;67556;55.656;12.590;2023-04-15T02:58:06;21.95;;;15.40;;
78298;SDS011;67556;55.656;12.590;2023-04-15T03:03:08;21.80;;;15.63;;
78298;SDS011;67556;55.656;12.590;2023-04-15T03:05:35;19.40;;;14.57;;
78298;SDS011;67556;55.656;12.590;2023-04-15T03:08:03;21.90;;;16.33;;
78298;SDS011;67556;55.656;12.590;2023-04-15T03:10:30;18.13;;;15.27;;
78298;SDS011;67556;55.656;12.590;2023-04-15T03:12:57;19.38;;;15.23;;
78298;SDS011;67556;55.656;12.590;2023-04-15T03:15:23;22.00;;;16.02;;
78298;SDS011;67556;55.656;12.590;2023-04-15T03:17:50;21.13;;;15.73;;
78298;SDS011;67556;55.656;12.590;2023-04-15T03:20:16;22.50;;;15.60;;
78298;SDS011;67556;55.656;12.590;2023-04-15T03:22:42;21.95;;;15.73;;
78298;SDS011;67556;55.656;12.590;2023-04-15T03:25:09;21.50;;;15.80;;
78298;SDS011;67556;55.656;12.590;2023-04-15T03:27:38;19.92;;;16.60;;
78298;SDS011;67556;55.656;12.590;2023-04-15T03:30:05;20.33;;;15.82;;
78298;SDS011;67556;55.656;12.590;2023-04-15T03:32:32;19.17;;;16.05;;
78298;SDS011;67556;55.656;12.590;2023-04-15T03:34:59;22.52;;;16.48;;
78298;SDS011;67556;55.656;12.590;2023-04-15T03:37:25;21.13;;;16.88;;
78298;SDS011;67556;55.656;12.590;2023-04-15T03:39:52;21.00;;;16.38;;
78298;SDS011;67556;55.656;12.590;2023-04-15T03:42:20;22.90;;;15.90;;
78298;SDS011;67556;55.656;12.590;2023-04-15T03:44:48;21.60;;;16.70;;
78298;SDS011;67556;55.656;12.590;2023-04-15T03:47:14;21.35;;;16.95;;
78298;SDS011;67556;55.656;12.590;2023-04-15T03:49:42;20.27;;;16.02;;
78298;SDS011;67556;55.656;12.590;2023-04-15T03:52:11;20.92;;;16.73;;
78298;SDS011;67556;55.656;12.590;2023-04-15T03:54:37;21.23;;;15.65;;
78298;SDS011;67556;55.656;12.590;2023-04-15T03:57:03;21.00;;;15.77;;
78298;SDS011;67556;55.656;12.590;2023-04-15T03:59:30;20.52;;;16.17;;
78298;SDS011;67556;55.656;12.590;2023-04-15T04:01:58;22.08;;;16.92;;
78298;SDS011;67556;55.656;12.590;2023-04-15T04:04:24;21.13;;;17.35;;
78298;SDS011;67556;55.656;12.590;2023-04-15T04:06:51;25.83;;;16.70;;
78298;SDS011;67556;55.656;12.590;2023-04-15T04:09:18;20.60;;;16.60;;
78298;SDS011;67556;55.656;12.590;2023-04-15T04:11:45;19.90;;;16.33;;
78298;SDS011;67556;55.656;12.590;2023-04-15T04:14:11;21.55;;;16.52;;
78298;SDS011;67556;55.656;12.590;2023-04-15T04:16:38;25.15;;;17.73;;
78298;SDS011;67556;55.656;12.590;2023-04-15T04:19:06;21.55;;;17.23;;
78298;SDS011;67556;55.656;12.590;2023-04-15T04:21:32;22.00;;;16.98;;
78298;SDS011;67556;55.656;12.590;2023-04-15T04:23:59;20.42;;;16.27;;
78298;SDS011;67556;55.656;12.590;2023-04-15T04:26:25;25.40;;;18.00;;
78298;SDS011;67556;55.656;12.590;2023-04-15T04:28:52;24.17;;;17.52;;
78298;SDS011;67556;55.656;12.590;2023-04-15T04:31:18;24.05;;;16.63;;
78298;SDS011;67556;55.656;12.590;2023-04-15T04:33:45;22.02;;;17.58;;
78298;SDS011;67556;55.656;12.590;2023-04-15T04:36:12;21.00;;;17.92;;
78298;SDS011;67556;55.656;12.590;2023-04-15T04:38:39;24.88;;;18.85;;
78298;SDS011;67556;55.656;12.590;2023-04-15T04:41:05;28.10;;;18.58;;
78298;SDS011;67556;55.656;12.590;2023-04-15T04:43:31;23.13;;;18.67;;
78298;SDS011;67556;55.656;12.590;2023-04-15T04:45:58;25.50;;;18.02;;
78298;SDS011;67556;55.656;12.590;2023-04-15T04:48:24;26.83;;;19.13;;
78298;SDS011;67556;55.656;12.590;2023-04-15T04:50:51;24.55;;;18.27;;
78298;SDS011;67556;55.656;12.590;2023-04-15T04:53:19;23.90;;;17.90;;
78298;SDS011;67556;55.656;12.590;2023-04-15T04:55:45;29.33;;;19.02;;
78298;SDS011;67556;55.656;12.590;2023-04-15T04:58:12;23.48;;;18.10;;
78298;SDS011;67556;55.656;12.590;2023-04-15T05:00:39;23.88;;;19.15;;
78298;SDS011;67556;55.656;12.590;2023-04-15T05:03:06;25.55;;;19.85;;
78298;SDS011;67556;55.656;12.590;2023-04-15T05:05:32;26.55;;;18.73;;
78298;SDS011;67556;55.656;12.590;2023-04-15T05:07:59;31.00;;;20.08;;
78298;SDS011;67556;55.656;12.590;2023-04-15T05:10:27;25.52;;;18.98;;
78298;SDS011;67556;55.656;12.590;2023-04-15T05:12:53;26.95;;;19.25;;
78298;SDS011;67556;55.656;12.590;2023-04-15T05:15:20;25.08;;;19.05;;
78298;SDS011;67556;55.656;12.590;2023-04-15T05:17:46;27.55;;;20.15;;
78298;SDS011;67556;55.656;12.590;2023-04-15T05:20:13;27.33;;;19.58;;
78298;SDS011;67556;55.656;12.590;2023-04-15T05:22:39;25.70;;;20.15;;
78298;SDS011;67556;55.656;12.590;2023-04-15T05:25:06;25.77;;;20.45;;
78298;SDS011;67556;55.656;12.590;2023-04-15T05:27:35;28.67;;;20.52;;
78298;SDS011;67556;55.656;12.590;2023-04-15T05:30:02;26.95;;;19.55;;
78298;SDS011;67556;55.656;12.590;2023-04-15T05:32:29;25.85;;;18.95;;
78298;SDS011;67556;55.656;12.590;2023-04-15T05:34:56;26.52;;;20.27;;
78298;SDS011;67556;55.656;12.590;2023-04-15T05:37:22;27.92;;;20.13;;
78298;SDS011;67556;55.656;12.590;2023-04-15T05:39:50;26.23;;;19.40;;
78298;SDS011;67556;55.656;12.590;2023-04-15T05:42:16;29.17;;;20.67;;
78298;SDS011;67556;55.656;12.590;2023-04-15T05:44:44;28.10;;;20.10;;
78298;SDS011;67556;55.656;12.590;2023-04-15T05:47:10;25.70;;;19.30;;
78298;SDS011;67556;55.656;12.590;2023-04-15T05:49:37;32.65;;;21.92;;
78298;SDS011;67556;55.656;12.590;2023-04-15T05:52:03;25.75;;;21.20;;
78298;SDS011;67556;55.656;12.590;2023-04-15T05:54:30;28.00;;;20.42;;
78298;SDS011;67556;55.656;12.590;2023-04-15T05:56:57;26.73;;;19.27;;
78298;SDS011;67556;55.656;12.590;2023-04-15T05:59:23;27.95;;;20.08;;
78298;SDS011;67556;55.656;12.590;2023-04-15T06:01:51;29.92;;;20.80;;
78298;SDS011;67556;55.656;12.590;2023-04-15T06:04:17;28.40;;;20.10;;
78298;SDS011;67556;55.656;12.590;2023-04-15T06:06:44;29.42;;;21.52;;
78298;SDS011;67556;55.656;12.590;2023-04-15T06:09:11;27.27;;;20.77;;
78298;SDS011;67556;55.656;12.590;2023-04-15T06:11:38;27.70;;;20.65;;
78298;SDS011;67556;55.656;12.590;2023-04-15T06:14:07;27.58;;;20.30;;
78298;SDS011;67556;55.656;12.590;2023-04-15T06:16:33;29.42;;;21.58;;
78298;SDS011;67556;55.656;12.590;2023-04-15T06:19:01;26.05;;;19.65;;
78298;SDS011;67556;55.656;12.590;2023-04-15T06:21:28;27.92;;;20.40;;
78298;SDS011;67556;55.656;12.590;2023-04-15T06:23:55;28.95;;;20.25;;
78298;SDS011;67556;55.656;12.590;2023-04-15T06:26:21;30.88;;;20.17;;
78298;SDS011;67556;55.656;12.590;2023-04-15T06:28:48;29.02;;;21.02;;
78298;SDS011;67556;55.656;12.590;2023-04-15T06:31:15;28.90;;;20.10;;
78298;SDS011;67556;55.656;12.590;2023-04-15T06:33:41;28.55;;;19.88;;
78298;SDS011;67556;55.656;12.590;2023-04-15T06:36:09;26.52;;;19.73;;
78298;SDS011;67556;55.656;12.590;2023-04-15T06:38:36;27.85;;;20.15;;
78298;SDS011;67556;55.656;12.590;2023-04-15T06:41:03;26.05;;;19.77;;
78298;SDS011;67556;55.656;12.590;2023-04-15T06:43:30;29.83;;;19.95;;
78298;SDS011;67556;55.656;12.590;2023-04-15T06:45:57;23.23;;;18.70;;
78298;SDS011;67556;55.656;12.590;2023-04-15T06:48:23;27.52;;;19.73;;
78298;SDS011;67556;55.656;12.590;2023-04-15T06:50:50;25.73;;;20.25;;
78298;SDS011;67556;55.656;12.590;2023-04-15T06:53:19;25.88;;;19.55;;
78298;SDS011;67556;55.656;12.590;2023-04-15T06:55:47;28.73;;;20.02;;
78298;SDS011;67556;55.656;12.590;2023-04-15T06:58:13;25.17;;;19.70;;
78298;SDS011;67556;55.656;12.590;2023-04-15T07:00:40;24.27;;;19.08;;
78298;SDS011;67556;55.656;12.590;2023-04-15T07:03:07;26.48;;;18.88;;
78298;SDS011;67556;55.656;12.590;2023-04-15T07:05:35;23.67;;;17.48;;
78298;SDS011;67556;55.656;12.590;2023-04-15T07:08:03;26.95;;;19.60;;
78298;SDS011;67556;55.656;12.590;2023-04-15T07:10:32;23.05;;;17.92;;
78298;SDS011;67556;55.656;12.590;2023-04-15T07:12:58;27.23;;;20.95;;
78298;SDS011;67556;55.656;12.590;2023-04-15T07:15:27;24.25;;;18.88;;
78298;SDS011;67556;55.656;12.590;2023-04-15T07:17:53;25.75;;;18.63;;
78298;SDS011;67556;55.656;12.590;2023-04-15T07:20:20;25.92;;;18.25;;
78298;SDS011;67556;55.656;12.590;2023-04-15T07:22:46;24.63;;;19.13;;
78298;SDS011;67556;55.656;12.590;2023-04-15T07:25:14;28.15;;;19.50;;
78298;SDS011;67556;55.656;12.590;2023-04-15T07:27:43;25.10;;;18.58;;
78298;SDS011;67556;55.656;12.590;2023-04-15T07:30:09;26.05;;;19.63;;
78298;SDS011;67556;55.656;12.590;2023-04-15T07:32:36;24.30;;;18.98;;
78298;SDS011;67556;55.656;12.590;2023-04-15T07:35:03;27.13;;;19.00;;
78298;SDS011;67556;55.656;12.590;2023-04-15T07:37:30;23.08;;;17.48;;
78298;SDS011;67556;55.656;12.590;2023-04-15T07:39:57;27.95;;;19.35;;
78298;SDS011;67556;55.656;12.590;2023-04-15T07:42:24;25.02;;;20.02;;
78298;SDS011;67556;55.656;12.590;2023-04-15T07:44:53;22.40;;;17.90;;
78298;SDS011;67556;55.656;12.590;2023-04-15T07:47:20;24.33;;;18.33;;
78298;SDS011;67556;55.656;12.590;2023-04-15T07:49:51;23.48;;;17.02;;
78298;SDS011;67556;55.656;12.590;2023-04-15T07:52:17;22.80;;;17.08;;
78298;SDS011;67556;55.656;12.590;2023-04-15T07:54:45;23.30;;;17.15;;
78298;SDS011;67556;55.656;12.590;2023-04-15T07:57:11;23.17;;;17.13;;
78298;SDS011;67556;55.656;12.590;2023-04-15T07:59:38;21.52;;;15.50;;
78298;SDS011;67556;55.656;12.590;2023-04-15T08:02:07;23.63;;;16.52;;
78298;SDS011;67556;55.656;12.590;2023-04-15T08:04:33;18.80;;;15.25;;
78298;SDS011;67556;55.656;12.590;2023-04-15T08:07:00;23.15;;;15.98;;
78298;SDS011;67556;55.656;12.590;2023-04-15T08:09:28;18.40;;;14.77;;
78298;SDS011;67556;55.656;12.590;2023-04-15T08:11:54;20.38;;;15.40;;
78298;SDS011;67556;55.656;12.590;2023-04-15T08:14:21;20.08;;;14.65;;
78298;SDS011;67556;55.656;12.590;2023-04-15T08:16:49;20.50;;;15.30;;
78298;SDS011;67556;55.656;12.590;2023-04-15T08:19:17;19.83;;;15.25;;
78298;SDS011;67556;55.656;12.590;2023-04-15T08:21:44;19.60;;;15.23;;
78298;SDS011;67556;55.656;12.590;2023-04-15T08:24:13;19.75;;;14.82;;
78298;SDS011;67556;55.656;12.590;2023-04-15T08:26:40;17.50;;;14.32;;
78298;SDS011;67556;55.656;12.590;2023-04-15T08:29:07;19.52;;;15.32;;
78298;SDS011;67556;55.656;12.590;2023-04-15T08:31:34;18.05;;;14.48;;
78298;SDS011;67556;55.656;12.590;2023-04-15T08:34:01;17.45;;;13.45;;
78298;SDS011;67556;55.656;12.590;2023-04-15T08:36:38;19.20;;;14.25;;
78298;SDS011;67556;55.656;12.590;2023-04-15T08:39:04;19.70;;;14.82;;
78298;SDS011;67556;55.656;12.590;2023-04-15T08:41:32;17.70;;;14.00;;
78298;SDS011;67556;55.656;12.590;2023-04-15T08:44:04;17.55;;;13.88;;
78298;SDS011;67556;55.656;12.590;2023-04-15T08:46:31;20.35;;;14.02;;
78298;SDS011;67556;55.656;12.590;2023-04-15T08:48:59;18.35;;;13.88;;
78298;SDS011;67556;55.656;12.590;2023-04-15T08:51:28;16.50;;;14.05;;
78298;SDS011;67556;55.656;12.590;2023-04-15T08:53:57;20.02;;;13.65;;
78298;SDS011;67556;55.656;12.590;2023-04-15T08:56:25;19.88;;;13.40;;
78298;SDS011;67556;55.656;12.590;2023-04-15T08:58:53;16.58;;;13.57;;
78298;SDS011;67556;55.656;12.590;2023-04-15T09:01:21;17.30;;;13.25;;
78298;SDS011;67556;55.656;12.590;2023-04-15T09:03:48;16.10;;;12.85;;
78298;SDS011;67556;55.656;12.590;2023-04-15T09:06:16;19.73;;;13.68;;
78298;SDS011;67556;55.656;12.590;2023-04-15T09:08:45;18.15;;;13.60;;
78298;SDS011;67556;55.656;12.590;2023-04-15T09:11:13;16.02;;;13.60;;
78298;SDS011;67556;55.656;12.590;2023-04-15T09:13:41;15.13;;;12.38;;
78298;SDS011;67556;55.656;12.590;2023-04-15T09:16:08;16.58;;;12.63;;
78298;SDS011;67556;55.656;12.590;2023-04-15T09:18:37;15.60;;;12.38;;
78298;SDS011;67556;55.656;12.590;2023-04-15T09:21:04;15.20;;;12.30;;
78298;SDS011;67556;55.656;12.590;2023-04-15T09:23:33;15.30;;;12.93;;
78298;SDS011;67556;55.656;12.590;2023-04-15T09:26:00;16.70;;;12.25;;
78298;SDS011;67556;55.656;12.590;2023-04-15T09:28:28;16.13;;;12.07;;
78298;SDS011;67556;55.656;12.590;2023-04-15T09:30:55;22.15;;;13.82;;
78298;SDS011;67556;55.656;12.590;2023-04-15T09:33:22;17.58;;;12.20;;
78298;SDS011;67556;55.656;12.590;2023-04-15T09:35:55;15.40;;;12.00;;
78298;SDS011;67556;55.656;12.590;2023-04-15T09:38:24;14.63;;;11.93;;
78298;SDS011;67556;55.656;12.590;2023-04-15T09:40:51;15.75;;;12.73;;
78298;SDS011;67556;55.656;12.590;2023-04-15T09:43:20;14.60;;;12.75;;
78298;SDS011;67556;55.656;12.590;2023-04-15T09:45:49;15.55;;;11.88;;
78298;SDS011;67556;55.656;12.590;2023-04-15T09:48:18;14.20;;;11.73;;
78298;SDS011;67556;55.656;12.590;2023-04-15T09:50:46;15.93;;;13.02;;
78298;SDS011;67556;55.656;12.590;2023-04-15T09:53:17;16.85;;;11.80;;
78298;SDS011;67556;55.656;12.590;2023-04-15T09:58:17;15.68;;;12.07;;
78298;SDS011;67556;55.656;12.590;2023-04-15T10:00:44;16.17;;;11.73;;
78298;SDS011;67556;55.656;12.590;2023-04-15T10:03:13;13.13;;;11.73;;
78298;SDS011;67556;55.656;12.590;2023-04-15T10:08:11;15.30;;;11.13;;
78298;SDS011;67556;55.656;12.590;2023-04-15T10:10:38;15.27;;;11.13;;
78298;SDS011;67556;55.656;12.590;2023-04-15T10:13:04;14.10;;;11.52;;
78298;SDS011;67556;55.656;12.590;2023-04-15T10:15:32;13.48;;;10.85;;
78298;SDS011;67556;55.656;12.590;2023-04-15T10:17:59;13.90;;;11.57;;
78298;SDS011;67556;55.656;12.590;2023-04-15T10:20:28;15.10;;;11.98;;
78298;SDS011;67556;55.656;12.590;2023-04-15T10:22:55;17.00;;;13.30;;
78298;SDS011;67556;55.656;12.590;2023-04-15T10:25:22;12.93;;;10.65;;
78298;SDS011;67556;55.656;12.590;2023-04-15T10:27:52;14.77;;;11.45;;
78298;SDS011;67556;55.656;12.590;2023-04-15T10:30:18;16.48;;;12.13;;
78298;SDS011;67556;55.656;12.590;2023-04-15T10:32:46;14.40;;;11.50;;
78298;SDS011;67556;55.656;12.590;2023-04-15T10:35:14;13.35;;;11.13;;
78298;SDS011;67556;55.656;12.590;2023-04-15T10:37:43;15.25;;;10.70;;
78298;SDS011;67556;55.656;12.590;2023-04-15T10:42:58;13.63;;;12.20;;
78298;SDS011;67556;55.656;12.590;2023-04-15T10:45:31;15.65;;;12.77;;
78298;SDS011;67556;55.656;12.590;2023-04-15T10:48:00;14.15;;;11.77;;
78298;SDS011;67556;55.656;12.590;2023-04-15T10:50:31;14.98;;;12.23;;
78298;SDS011;67556;55.656;12.590;2023-04-15T10:53:02;16.58;;;12.48;;
78298;SDS011;67556;55.656;12.590;2023-04-15T10:55:30;14.45;;;12.38;;
78298;SDS011;67556;55.656;12.590;2023-04-15T10:57:58;15.20;;;11.98;;
78298;SDS011;67556;55.656;12.590;2023-04-15T11:00:27;16.77;;;13.18;;
78298;SDS011;67556;55.656;12.590;2023-04-15T11:02:55;16.45;;;12.93;;
78298;SDS011;67556;55.656;12.590;2023-04-15T11:08:21;14.75;;;12.73;;
78298;SDS011;67556;55.656;12.590;2023-04-15T11:11:20;15.52;;;12.55;;
78298;SDS011;67556;55.656;12.590;2023-04-15T11:13:47;16.63;;;13.73;;
78298;SDS011;67556;55.656;12.590;2023-04-15T11:16:14;16.35;;;12.98;;
78298;SDS011;67556;55.656;12.590;2023-04-15T11:18:42;14.48;;;12.95;;
78298;SDS011;67556;55.656;12.590;2023-04-15T11:21:18;18.05;;;13.55;;
78298;SDS011;67556;55.656;12.590;2023-04-15T11:23:53;16.00;;;12.35;;
78298;SDS011;67556;55.656;12.590;2023-04-15T11:26:24;18.00;;;13.85;;
78298;SDS011;67556;55.656;12.590;2023-04-15T11:28:51;16.35;;;13.32;;
78298;SDS011;67556;55.656;12.590;2023-04-15T11:31:20;16.17;;;12.13;;
78298;SDS011;67556;55.656;12.590;2023-04-15T11:33:52;14.70;;;12.35;;
78298;SDS011;67556;55.656;12.590;2023-04-15T11:36:22;16.10;;;12.40;;
78298;SDS011;67556;55.656;12.590;2023-04-15T11:38:50;15.43;;;12.88;;
78298;SDS011;67556;55.656;12.590;2023-04-15T11:41:20;15.95;;;12.93;;
78298;SDS011;67556;55.656;12.590;2023-04-15T11:43:47;16.05;;;13.20;;
78298;SDS011;67556;55.656;12.590;2023-04-15T11:46:17;14.63;;;12.43;;
78298;SDS011;67556;55.656;12.590;2023-04-15T11:48:44;14.70;;;12.48;;
78298;SDS011;67556;55.656;12.590;2023-04-15T11:51:12;16.35;;;13.05;;
78298;SDS011;67556;55.656;12.590;2023-04-15T11:53:39;21.45;;;13.80;;
78298;SDS011;67556;55.656;12.590;2023-04-15T11:56:07;19.38;;;13.52;;
78298;SDS011;67556;55.656;12.590;2023-04-15T11:58:37;15.77;;;13.02;;
78298;SDS011;67556;55.656;12.590;2023-04-15T12:01:05;16.05;;;12.50;;
78298;SDS011;67556;55.656;12.590;2023-04-15T12:03:35;14.65;;;13.07;;
78298;SDS011;67556;55.656;12.590;2023-04-15T12:06:08;16.00;;;13.23;;
78298;SDS011;67556;55.656;12.590;2023-04-15T12:08:49;17.38;;;12.95;;
78298;SDS011;67556;55.656;12.590;2023-04-15T12:11:26;15.13;;;12.32;;
78298;SDS011;67556;55.656;12.590;2023-04-15T12:13:56;16.30;;;12.18;;
78298;SDS011;67556;55.656;12.590;2023-04-15T12:16:24;16.33;;;12.85;;
78298;SDS011;67556;55.656;12.590;2023-04-15T12:18:52;14.70;;;11.80;;
78298;SDS011;67556;55.656;12.590;2023-04-15T12:21:23;15.30;;;11.88;;
78298;SDS011;67556;55.656;12.590;2023-04-15T12:23:51;14.07;;;11.85;;
78298;SDS011;67556;55.656;12.590;2023-04-15T12:26:24;14.15;;;11.93;;
78298;SDS011;67556;55.656;12.590;2023-04-15T12:28:52;15.32;;;11.93;;
78298;SDS011;67556;55.656;12.590;2023-04-15T12:31:20;13.32;;;11.23;;
78298;SDS011;67556;55.656;12.590;2023-04-15T12:33:47;13.90;;;11.13;;
78298;SDS011;67556;55.656;12.590;2023-04-15T12:36:15;14.52;;;11.45;;
78298;SDS011;67556;55.656;12.590;2023-04-15T12:38:41;12.82;;;11.48;;
78298;SDS011;67556;55.656;12.590;2023-04-15T12:41:07;14.82;;;11.48;;
78298;SDS011;67556;55.656;12.590;2023-04-15T12:43:34;15.15;;;11.48;;
78298;SDS011;67556;55.656;12.590;2023-04-15T12:46:00;15.27;;;11.65;;
78298;SDS011;67556;55.656;12.590;2023-04-15T12:48:28;14.15;;;11.77;;
78298;SDS011;67556;55.656;12.590;2023-04-15T12:50:55;14.05;;;11.63;;
78298;SDS011;67556;55.656;12.590;2023-04-15T12:53:21;15.48;;;11.20;;
78298;SDS011;67556;55.656;12.590;2023-04-15T12:55:47;14.80;;;10.48;;
78298;SDS011;67556;55.656;12.590;2023-04-15T12:58:14;14.13;;;10.45;;
78298;SDS011;67556;55.656;12.590;2023-04-15T13:00:40;15.98;;;10.32;;
78298;SDS011;67556;55.656;12.590;2023-04-15T13:03:07;14.48;;;11.02;;
78298;SDS011;67556;55.656;12.590;2023-04-15T13:05:34;13.80;;;11.27;;
78298;SDS011;67556;55.656;12.590;2023-04-15T13:08:03;12.93;;;10.77;;
78298;SDS011;67556;55.656;12.590;2023-04-15T13:10:30;12.18;;;10.75;;
78298;SDS011;67556;55.656;12.590;2023-04-15T13:12:56;16.67;;;11.48;;
78298;SDS011;67556;55.656;12.590;2023-04-15T13:15:23;12.52;;;10.20;;
78298;SDS011;67556;55.656;12.590;2023-04-15T13:17:50;13.02;;;10.43;;
78298;SDS011;67556;55.656;12.590;2023-04-15T13:20:16;12.77;;;10.25;;
78298;SDS011;67556;55.656;12.590;2023-04-15T13:22:45;13.15;;;9.75;;
78298;SDS011;67556;55.656;12.590;2023-04-15T13:25:12;13.18;;;10.25;;
78298;SDS011;67556;55.656;12.590;2023-04-15T13:27:38;14.23;;;10.85;;
78298;SDS011;67556;55.656;12.590;2023-04-15T13:30:05;11.68;;;9.95;;
78298;SDS011;67556;55.656;12.590;2023-04-15T13:32:32;11.98;;;9.32;;
78298;SDS011;67556;55.656;12.590;2023-04-15T13:34:58;12.68;;;10.13;;
78298;SDS011;67556;55.656;12.590;2023-04-15T13:37:32;14.40;;;11.07;;
78298;SDS011;67556;55.656;12.590;2023-04-15T13:40:23;12.52;;;10.02;;
78298;SDS011;67556;55.656;12.590;2023-04-15T13:42:51;12.13;;;10.07;;
78298;SDS011;67556;55.656;12.590;2023-04-15T13:45:17;14.57;;;10.85;;
78298;SDS011;67556;55.656;12.590;2023-04-15T13:47:44;12.38;;;11.07;;
78298;SDS011;67556;55.656;12.590;2023-04-15T13:50:12;12.80;;;10.77;;
78298;SDS011;67556;55.656;12.590;2023-04-15T13:52:38;13.57;;;10.43;;
78298;SDS011;67556;55.656;12.590;2023-04-15T13:55:05;12.23;;;10.32;;
78298;SDS011;67556;55.656;12.590;2023-04-15T13:57:34;12.18;;;10.20;;
78298;SDS011;67556;55.656;12.590;2023-04-15T14:00:02;12.90;;;10.45;;
78298;SDS011;67556;55.656;12.590;2023-04-15T14:02:30;12.63;;;10.30;;
78298;SDS011;67556;55.656;12.590;2023-04-15T14:04:56;12.88;;;10.25;;
78298;SDS011;67556;55.656;12.590;2023-04-15T14:07:23;11.95;;;9.90;;
78298;SDS011;67556;55.656;12.590;2023-04-15T14:09:49;14.13;;;10.60;;
78298;SDS011;67556;55.656;12.590;2023-04-15T14:12:18;12.80;;;10.20;;
78298;SDS011;67556;55.656;12.590;2023-04-15T14:14:45;12.20;;;10.10;;
78298;SDS011;67556;55.656;12.590;2023-04-15T14:17:12;16.08;;;11.27;;
78298;SDS011;67556;55.656;12.590;2023-04-15T14:19:39;13.70;;;9.98;;
78298;SDS011;67556;55.656;12.590;2023-04-15T14:22:08;13.75;;;10.75;;
78298;SDS011;67556;55.656;12.590;2023-04-15T14:24:34;11.75;;;9.93;;